sensor_id;sensor_type;location;lat;lon;timestamp;P1;durP1;ratioP1;P2;durP2;ratioP2
73456;SDS011;61691;53.072;6.582;2023-07-02T00:00:00;21.63;;;6.30;;
73456;SDS011;61691;53.072;6.582;2023-07-02T00:02:27;24.30;;;5.88;;
73456;SDS011;61691;53.072;6.582;2023-07-02T00:04:54;24.70;;;6.78;;
73456;SDS011;61691;53.072;6.582;2023-07-02T00:07:21;23.33;;;6.43;;
73456;SDS011;61691;53.072;6.582;2023-07-02T00:09:48;25.58;;;7.05;;
73456;SDS011;61691;53.072;6.582;2023-07-02T00:12:15;20.48;;;5.65;;
73456;SDS011;61691;53.072;6.582;2023-07-02T00:14:42;24.02;;;7.45;;
73456;SDS011;61691;53.072;6.582;2023-07-02T00:17:09;21.13;;;5.78;;
73456;SDS011;61691;53.072;6.582;2023-07-02T00:19:39;23.33;;;6.50;;
73456;SDS011;61691;53.072;6.582;2023-07-02T00:22:09;22.30;;;6.88;;
73456;SDS011;61691;53.072;6.582;2023-07-02T00:24:36;24.38;;;7.25;;
73456;SDS011;61691;53.072;6.582;2023-07-02T00:27:03;22.38;;;6.65;;
73456;SDS011;61691;53.072;6.582;2023-07-02T00:29:30;21.73;;;6.55;;
73456;SDS011;61691;53.072;6.582;2023-07-02T00:31:57;24.13;;;7.25;;
73456;SDS011;61691;53.072;6.582;2023-07-02T00:34:24;26.38;;;7.20;;
73456;SDS011;61691;53.072;6.582;2023-07-02T00:36:51;24.10;;;7.38;;
73456;SDS011;61691;53.072;6.582;2023-07-02T00:39:18;25.88;;;6.63;;
73456;SDS011;61691;53.072;6.582;2023-07-02T00:41:45;26.83;;;7.38;;
73456;SDS011;61691;53.072;6.582;2023-07-02T00:44:14;25.55;;;6.88;;
73456;SDS011;61691;53.072;6.582;2023-07-02T00:46:41;29.05;;;8.25;;
73456;SDS011;61691;53.072;6.582;2023-07-02T00:49:08;23.42;;;7.63;;
73456;SDS011;61691;53.072;6.582;2023-07-02T00:51:36;31.55;;;7.72;;
73456;SDS011;61691;53.072;6.582;2023-07-02T00:54:03;27.80;;;7.00;;
73456;SDS011;61691;53.072;6.582;2023-07-02T00:56:30;25.73;;;7.90;;
73456;SDS011;61691;53.072;6.582;2023-07-02T00:58:57;27.88;;;8.23;;
73456;SDS011;61691;53.072;6.582;2023-07-02T01:01:25;29.55;;;7.97;;
73456;SDS011;61691;53.072;6.582;2023-07-02T01:03:58;25.05;;;8.50;;
73456;SDS011;61691;53.072;6.582;2023-07-02T01:06:27;29.90;;;8.05;;
73456;SDS011;61691;53.072;6.582;2023-07-02T01:08:59;25.40;;;7.40;;
73456;SDS011;61691;53.072;6.582;2023-07-02T01:11:35;25.20;;;7.80;;
73456;SDS011;61691;53.072;6.582;2023-07-02T01:14:12;26.33;;;7.38;;
73456;SDS011;61691;53.072;6.582;2023-07-02T01:16:42;26.35;;;7.57;;
73456;SDS011;61691;53.072;6.582;2023-07-02T01:19:11;30.65;;;7.65;;
73456;SDS011;61691;53.072;6.582;2023-07-02T01:21:48;26.15;;;7.25;;
73456;SDS011;61691;53.072;6.582;2023-07-02T01:24:16;28.45;;;8.30;;
73456;SDS011;61691;53.072;6.582;2023-07-02T01:26:44;29.50;;;8.23;;
73456;SDS011;61691;53.072;6.582;2023-07-02T01:29:20;25.88;;;7.95;;
73456;SDS011;61691;53.072;6.582;2023-07-02T01:31:47;25.20;;;7.90;;
73456;SDS011;61691;53.072;6.582;2023-07-02T01:34:14;25.17;;;8.07;;
73456;SDS011;61691;53.072;6.582;2023-07-02T01:36:41;27.83;;;8.77;;
73456;SDS011;61691;53.072;6.582;2023-07-02T01:39:08;29.95;;;8.68;;
73456;SDS011;61691;53.072;6.582;2023-07-02T01:41:37;26.33;;;7.95;;
73456;SDS011;61691;53.072;6.582;2023-07-02T01:44:24;30.90;;;7.57;;
73456;SDS011;61691;53.072;6.582;2023-07-02T01:46:51;23.75;;;7.05;;
73456;SDS011;61691;53.072;6.582;2023-07-02T01:49:18;28.63;;;7.70;;
73456;SDS011;61691;53.072;6.582;2023-07-02T01:51:54;27.25;;;8.25;;
73456;SDS011;61691;53.072;6.582;2023-07-02T01:54:22;24.98;;;7.75;;
73456;SDS011;61691;53.072;6.582;2023-07-02T01:56:50;27.55;;;7.80;;
73456;SDS011;61691;53.072;6.582;2023-07-02T01:59:17;28.67;;;8.60;;
73456;SDS011;61691;53.072;6.582;2023-07-02T02:01:43;25.38;;;8.07;;
73456;SDS011;61691;53.072;6.582;2023-07-02T02:04:11;24.20;;;8.02;;
73456;SDS011;61691;53.072;6.582;2023-07-02T02:06:38;28.27;;;7.55;;
73456;SDS011;61691;53.072;6.582;2023-07-02T02:09:05;25.50;;;8.80;;
73456;SDS011;61691;53.072;6.582;2023-07-02T02:11:34;28.15;;;8.32;;
73456;SDS011;61691;53.072;6.582;2023-07-02T02:14:03;27.45;;;9.52;;
73456;SDS011;61691;53.072;6.582;2023-07-02T02:16:30;29.65;;;8.63;;
73456;SDS011;61691;53.072;6.582;2023-07-02T02:18:57;31.65;;;9.13;;
73456;SDS011;61691;53.072;6.582;2023-07-02T02:21:23;29.27;;;8.48;;
73456;SDS011;61691;53.072;6.582;2023-07-02T02:23:50;30.65;;;9.02;;
73456;SDS011;61691;53.072;6.582;2023-07-02T02:26:17;28.08;;;7.93;;
73456;SDS011;61691;53.072;6.582;2023-07-02T02:28:44;27.60;;;8.38;;
73456;SDS011;61691;53.072;6.582;2023-07-02T02:31:11;28.38;;;8.20;;
73456;SDS011;61691;53.072;6.582;2023-07-02T02:33:37;28.67;;;7.60;;
73456;SDS011;61691;53.072;6.582;2023-07-02T02:36:04;24.08;;;7.65;;
73456;SDS011;61691;53.072;6.582;2023-07-02T02:38:31;30.42;;;8.25;;
73456;SDS011;61691;53.072;6.582;2023-07-02T02:40:58;27.15;;;7.88;;
73456;SDS011;61691;53.072;6.582;2023-07-02T02:43:24;27.88;;;9.02;;
73456;SDS011;61691;53.072;6.582;2023-07-02T02:45:51;27.13;;;8.23;;
73456;SDS011;61691;53.072;6.582;2023-07-02T02:48:18;29.15;;;8.52;;
73456;SDS011;61691;53.072;6.582;2023-07-02T02:50:44;27.48;;;8.10;;
73456;SDS011;61691;53.072;6.582;2023-07-02T02:53:12;26.55;;;8.48;;
73456;SDS011;61691;53.072;6.582;2023-07-02T02:55:38;30.15;;;8.77;;
73456;SDS011;61691;53.072;6.582;2023-07-02T02:58:05;28.17;;;9.02;;
73456;SDS011;61691;53.072;6.582;2023-07-02T03:00:32;27.33;;;8.27;;
73456;SDS011;61691;53.072;6.582;2023-07-02T03:02:59;28.50;;;8.10;;
73456;SDS011;61691;53.072;6.582;2023-07-02T03:05:26;27.50;;;7.50;;
73456;SDS011;61691;53.072;6.582;2023-07-02T03:07:53;32.13;;;8.98;;
73456;SDS011;61691;53.072;6.582;2023-07-02T03:10:19;28.10;;;8.65;;
73456;SDS011;61691;53.072;6.582;2023-07-02T03:12:47;32.10;;;8.90;;
73456;SDS011;61691;53.072;6.582;2023-07-02T03:15:14;34.35;;;9.85;;
73456;SDS011;61691;53.072;6.582;2023-07-02T03:17:40;27.00;;;8.05;;
73456;SDS011;61691;53.072;6.582;2023-07-02T03:20:07;28.40;;;8.65;;
73456;SDS011;61691;53.072;6.582;2023-07-02T03:22:34;30.30;;;7.70;;
73456;SDS011;61691;53.072;6.582;2023-07-02T03:25:01;26.63;;;8.32;;
73456;SDS011;61691;53.072;6.582;2023-07-02T03:27:28;27.90;;;8.60;;
73456;SDS011;61691;53.072;6.582;2023-07-02T03:29:55;30.40;;;8.77;;
73456;SDS011;61691;53.072;6.582;2023-07-02T03:32:22;27.02;;;7.85;;
73456;SDS011;61691;53.072;6.582;2023-07-02T03:34:48;29.45;;;8.80;;
73456;SDS011;61691;53.072;6.582;2023-07-02T03:37:15;29.33;;;7.70;;
73456;SDS011;61691;53.072;6.582;2023-07-02T03:39:42;26.23;;;8.60;;
73456;SDS011;61691;53.072;6.582;2023-07-02T03:42:09;29.10;;;8.48;;
73456;SDS011;61691;53.072;6.582;2023-07-02T03:44:35;26.88;;;9.20;;
73456;SDS011;61691;53.072;6.582;2023-07-02T03:47:02;25.50;;;7.70;;
73456;SDS011;61691;53.072;6.582;2023-07-02T03:49:29;26.73;;;8.30;;
73456;SDS011;61691;53.072;6.582;2023-07-02T03:51:55;28.77;;;8.02;;
73456;SDS011;61691;53.072;6.582;2023-07-02T03:54:22;27.67;;;8.32;;
73456;SDS011;61691;53.072;6.582;2023-07-02T03:56:49;28.00;;;7.57;;
73456;SDS011;61691;53.072;6.582;2023-07-02T03:59:16;26.35;;;8.50;;
73456;SDS011;61691;53.072;6.582;2023-07-02T04:01:42;28.23;;;8.18;;
73456;SDS011;61691;53.072;6.582;2023-07-02T04:04:10;26.33;;;7.82;;
73456;SDS011;61691;53.072;6.582;2023-07-02T04:06:38;29.80;;;7.90;;
73456;SDS011;61691;53.072;6.582;2023-07-02T04:09:05;28.27;;;8.30;;
73456;SDS011;61691;53.072;6.582;2023-07-02T04:11:31;26.33;;;7.43;;
73456;SDS011;61691;53.072;6.582;2023-07-02T04:13:58;25.95;;;7.85;;
73456;SDS011;61691;53.072;6.582;2023-07-02T04:16:25;30.42;;;8.90;;
73456;SDS011;61691;53.072;6.582;2023-07-02T04:18:52;29.40;;;9.50;;
73456;SDS011;61691;53.072;6.582;2023-07-02T04:21:18;26.35;;;7.47;;
73456;SDS011;61691;53.072;6.582;2023-07-02T04:23:45;25.95;;;8.27;;
73456;SDS011;61691;53.072;6.582;2023-07-02T04:26:12;24.98;;;7.22;;
73456;SDS011;61691;53.072;6.582;2023-07-02T04:28:58;28.42;;;8.07;;
73456;SDS011;61691;53.072;6.582;2023-07-02T04:31:25;28.35;;;8.13;;
73456;SDS011;61691;53.072;6.582;2023-07-02T04:33:52;28.30;;;8.38;;
73456;SDS011;61691;53.072;6.582;2023-07-02T04:36:19;29.52;;;8.50;;
73456;SDS011;61691;53.072;6.582;2023-07-02T04:38:46;26.55;;;8.60;;
73456;SDS011;61691;53.072;6.582;2023-07-02T04:41:12;27.17;;;7.10;;
73456;SDS011;61691;53.072;6.582;2023-07-02T04:43:39;29.88;;;8.50;;
73456;SDS011;61691;53.072;6.582;2023-07-02T04:46:06;24.60;;;7.70;;
73456;SDS011;61691;53.072;6.582;2023-07-02T04:48:35;27.42;;;8.35;;
73456;SDS011;61691;53.072;6.582;2023-07-02T04:51:02;25.20;;;7.30;;
73456;SDS011;61691;53.072;6.582;2023-07-02T04:53:29;29.17;;;9.25;;
73456;SDS011;61691;53.072;6.582;2023-07-02T04:55:56;24.27;;;7.30;;
73456;SDS011;61691;53.072;6.582;2023-07-02T04:58:23;25.63;;;7.47;;
73456;SDS011;61691;53.072;6.582;2023-07-02T05:00:50;25.05;;;7.13;;
73456;SDS011;61691;53.072;6.582;2023-07-02T05:03:17;25.85;;;7.70;;
73456;SDS011;61691;53.072;6.582;2023-07-02T05:05:44;25.33;;;6.90;;
73456;SDS011;61691;53.072;6.582;2023-07-02T05:08:11;26.35;;;7.30;;
73456;SDS011;61691;53.072;6.582;2023-07-02T05:10:38;21.60;;;6.88;;
73456;SDS011;61691;53.072;6.582;2023-07-02T05:13:04;23.73;;;6.43;;
73456;SDS011;61691;53.072;6.582;2023-07-02T05:15:31;26.75;;;6.72;;
73456;SDS011;61691;53.072;6.582;2023-07-02T05:17:58;22.58;;;6.90;;
73456;SDS011;61691;53.072;6.582;2023-07-02T05:20:25;22.08;;;6.32;;
73456;SDS011;61691;53.072;6.582;2023-07-02T05:22:52;24.27;;;6.03;;
73456;SDS011;61691;53.072;6.582;2023-07-02T05:25:19;22.38;;;6.10;;
73456;SDS011;61691;53.072;6.582;2023-07-02T05:27:46;22.70;;;5.57;;
73456;SDS011;61691;53.072;6.582;2023-07-02T05:30:14;23.10;;;5.95;;
73456;SDS011;61691;53.072;6.582;2023-07-02T05:32:41;22.05;;;5.97;;
73456;SDS011;61691;53.072;6.582;2023-07-02T05:35:09;23.13;;;6.47;;
73456;SDS011;61691;53.072;6.582;2023-07-02T05:37:35;21.48;;;5.95;;
73456;SDS011;61691;53.072;6.582;2023-07-02T05:40:02;20.80;;;5.47;;
73456;SDS011;61691;53.072;6.582;2023-07-02T05:42:29;22.90;;;5.28;;
73456;SDS011;61691;53.072;6.582;2023-07-02T05:44:56;19.40;;;5.57;;
73456;SDS011;61691;53.072;6.582;2023-07-02T05:47:22;19.67;;;5.32;;
73456;SDS011;61691;53.072;6.582;2023-07-02T05:49:49;21.98;;;6.10;;
73456;SDS011;61691;53.072;6.582;2023-07-02T05:52:16;21.33;;;5.63;;
73456;SDS011;61691;53.072;6.582;2023-07-02T05:54:45;22.38;;;5.40;;
73456;SDS011;61691;53.072;6.582;2023-07-02T05:57:11;20.30;;;5.40;;
73456;SDS011;61691;53.072;6.582;2023-07-02T05:59:38;20.83;;;5.40;;
73456;SDS011;61691;53.072;6.582;2023-07-02T06:02:05;21.52;;;6.05;;
73456;SDS011;61691;53.072;6.582;2023-07-02T06:04:32;26.90;;;6.00;;
73456;SDS011;61691;53.072;6.582;2023-07-02T06:06:59;23.92;;;6.35;;
73456;SDS011;61691;53.072;6.582;2023-07-02T06:09:27;20.30;;;5.30;;
73456;SDS011;61691;53.072;6.582;2023-07-02T06:11:54;23.60;;;6.53;;
73456;SDS011;61691;53.072;6.582;2023-07-02T06:14:21;22.50;;;5.45;;
73456;SDS011;61691;53.072;6.582;2023-07-02T06:16:49;19.20;;;5.72;;
73456;SDS011;61691;53.072;6.582;2023-07-02T06:19:16;23.42;;;5.72;;
73456;SDS011;61691;53.072;6.582;2023-07-02T06:21:43;21.58;;;5.78;;
73456;SDS011;61691;53.072;6.582;2023-07-02T06:24:09;20.50;;;5.38;;
73456;SDS011;61691;53.072;6.582;2023-07-02T06:26:36;22.60;;;5.55;;
73456;SDS011;61691;53.072;6.582;2023-07-02T06:29:03;19.70;;;5.20;;
73456;SDS011;61691;53.072;6.582;2023-07-02T06:31:30;20.48;;;6.15;;
73456;SDS011;61691;53.072;6.582;2023-07-02T06:33:57;22.08;;;5.32;;
73456;SDS011;61691;53.072;6.582;2023-07-02T06:36:23;20.13;;;5.10;;
73456;SDS011;61691;53.072;6.582;2023-07-02T06:38:50;22.88;;;5.57;;
73456;SDS011;61691;53.072;6.582;2023-07-02T06:41:17;20.95;;;5.15;;
73456;SDS011;61691;53.072;6.582;2023-07-02T06:43:44;21.63;;;5.97;;
73456;SDS011;61691;53.072;6.582;2023-07-02T06:46:11;19.85;;;5.30;;
73456;SDS011;61691;53.072;6.582;2023-07-02T06:48:38;21.98;;;5.30;;
73456;SDS011;61691;53.072;6.582;2023-07-02T06:51:05;19.73;;;4.95;;
73456;SDS011;61691;53.072;6.582;2023-07-02T06:53:33;22.13;;;4.72;;
73456;SDS011;61691;53.072;6.582;2023-07-02T06:56:00;23.90;;;5.85;;
73456;SDS011;61691;53.072;6.582;2023-07-02T06:58:27;18.92;;;4.80;;
73456;SDS011;61691;53.072;6.582;2023-07-02T07:00:53;21.10;;;5.00;;
73456;SDS011;61691;53.072;6.582;2023-07-02T07:03:20;21.65;;;5.18;;
73456;SDS011;61691;53.072;6.582;2023-07-02T07:05:47;20.42;;;5.05;;
73456;SDS011;61691;53.072;6.582;2023-07-02T07:08:13;18.25;;;4.18;;
73456;SDS011;61691;53.072;6.582;2023-07-02T07:10:40;20.15;;;4.38;;
73456;SDS011;61691;53.072;6.582;2023-07-02T12:07:52;18.42;;;2.42;;
73456;SDS011;61691;53.072;6.582;2023-07-02T12:10:19;21.05;;;4.88;;
73456;SDS011;61691;53.072;6.582;2023-07-02T12:12:45;16.05;;;2.85;;
73456;SDS011;61691;53.072;6.582;2023-07-02T12:15:12;18.35;;;3.05;;
73456;SDS011;61691;53.072;6.582;2023-07-02T12:17:39;18.15;;;3.15;;
73456;SDS011;61691;53.072;6.582;2023-07-02T12:20:06;17.02;;;2.65;;
73456;SDS011;61691;53.072;6.582;2023-07-02T12:22:33;16.25;;;2.75;;
73456;SDS011;61691;53.072;6.582;2023-07-02T12:25:00;22.60;;;4.03;;
73456;SDS011;61691;53.072;6.582;2023-07-02T12:27:26;16.52;;;3.30;;
73456;SDS011;61691;53.072;6.582;2023-07-02T12:29:55;15.30;;;2.75;;
73456;SDS011;61691;53.072;6.582;2023-07-02T12:32:22;13.50;;;2.53;;
73456;SDS011;61691;53.072;6.582;2023-07-02T12:34:49;14.65;;;2.60;;
73456;SDS011;61691;53.072;6.582;2023-07-02T12:37:16;12.77;;;2.53;;
73456;SDS011;61691;53.072;6.582;2023-07-02T12:39:45;17.73;;;2.67;;
73456;SDS011;61691;53.072;6.582;2023-07-02T12:42:12;21.02;;;3.25;;
73456;SDS011;61691;53.072;6.582;2023-07-02T12:44:38;14.45;;;3.08;;
73456;SDS011;61691;53.072;6.582;2023-07-02T12:47:05;13.35;;;2.65;;
73456;SDS011;61691;53.072;6.582;2023-07-02T12:49:32;14.48;;;3.05;;
73456;SDS011;61691;53.072;6.582;2023-07-02T12:51:58;16.05;;;3.05;;
73456;SDS011;61691;53.072;6.582;2023-07-02T12:54:25;15.52;;;3.20;;
73456;SDS011;61691;53.072;6.582;2023-07-02T12:56:53;18.30;;;3.97;;
73456;SDS011;61691;53.072;6.582;2023-07-02T12:59:19;21.70;;;3.63;;
73456;SDS011;61691;53.072;6.582;2023-07-02T13:01:46;16.60;;;3.42;;
73456;SDS011;61691;53.072;6.582;2023-07-02T13:04:14;19.05;;;3.67;;
73456;SDS011;61691;53.072;6.582;2023-07-02T13:06:41;15.73;;;3.75;;
73456;SDS011;61691;53.072;6.582;2023-07-02T13:09:11;17.92;;;3.78;;
73456;SDS011;61691;53.072;6.582;2023-07-02T13:11:38;16.33;;;3.42;;
73456;SDS011;61691;53.072;6.582;2023-07-02T13:14:04;16.48;;;3.25;;
73456;SDS011;61691;53.072;6.582;2023-07-02T13:16:31;18.27;;;3.83;;
73456;SDS011;61691;53.072;6.582;2023-07-02T13:18:58;19.67;;;4.30;;
73456;SDS011;61691;53.072;6.582;2023-07-02T13:21:28;18.33;;;4.18;;
73456;SDS011;61691;53.072;6.582;2023-07-02T13:23:55;17.85;;;4.20;;
73456;SDS011;61691;53.072;6.582;2023-07-02T13:26:21;21.30;;;4.50;;
73456;SDS011;61691;53.072;6.582;2023-07-02T13:28:48;18.95;;;4.40;;
73456;SDS011;61691;53.072;6.582;2023-07-02T13:31:15;21.17;;;4.65;;
73456;SDS011;61691;53.072;6.582;2023-07-02T13:33:42;19.00;;;4.13;;
73456;SDS011;61691;53.072;6.582;2023-07-02T13:36:09;19.00;;;4.75;;
73456;SDS011;61691;53.072;6.582;2023-07-02T13:38:36;16.33;;;3.78;;
73456;SDS011;61691;53.072;6.582;2023-07-02T13:41:03;18.58;;;4.38;;
73456;SDS011;61691;53.072;6.582;2023-07-02T13:43:29;16.50;;;3.70;;
73456;SDS011;61691;53.072;6.582;2023-07-02T13:45:56;18.27;;;4.60;;
73456;SDS011;61691;53.072;6.582;2023-07-02T13:48:23;18.48;;;3.88;;
73456;SDS011;61691;53.072;6.582;2023-07-02T13:50:53;18.38;;;4.35;;
73456;SDS011;61691;53.072;6.582;2023-07-02T13:53:20;17.17;;;4.10;;
73456;SDS011;61691;53.072;6.582;2023-07-02T13:55:47;16.60;;;4.10;;
73456;SDS011;61691;53.072;6.582;2023-07-02T13:58:15;18.08;;;4.25;;
73456;SDS011;61691;53.072;6.582;2023-07-02T14:00:55;23.80;;;4.72;;
73456;SDS011;61691;53.072;6.582;2023-07-02T14:03:22;20.33;;;4.90;;
73456;SDS011;61691;53.072;6.582;2023-07-02T14:05:49;19.95;;;4.85;;
73456;SDS011;61691;53.072;6.582;2023-07-02T14:08:17;18.67;;;4.07;;
73456;SDS011;61691;53.072;6.582;2023-07-02T14:10:44;17.88;;;3.97;;
73456;SDS011;61691;53.072;6.582;2023-07-02T14:13:11;21.25;;;5.22;;
73456;SDS011;61691;53.072;6.582;2023-07-02T14:15:37;20.58;;;4.85;;
73456;SDS011;61691;53.072;6.582;2023-07-02T14:18:04;17.42;;;4.22;;
73456;SDS011;61691;53.072;6.582;2023-07-02T14:20:32;17.23;;;4.60;;
73456;SDS011;61691;53.072;6.582;2023-07-02T14:22:58;17.75;;;3.90;;
73456;SDS011;61691;53.072;6.582;2023-07-02T14:25:25;19.20;;;4.35;;
73456;SDS011;61691;53.072;6.582;2023-07-02T14:28:06;19.85;;;4.40;;
73456;SDS011;61691;53.072;6.582;2023-07-02T14:30:33;17.15;;;4.15;;
73456;SDS011;61691;53.072;6.582;2023-07-02T14:32:59;20.02;;;4.55;;
73456;SDS011;61691;53.072;6.582;2023-07-02T14:35:26;17.75;;;4.65;;
73456;SDS011;61691;53.072;6.582;2023-07-02T14:37:54;19.42;;;4.72;;
73456;SDS011;61691;53.072;6.582;2023-07-02T14:40:21;17.88;;;4.38;;
73456;SDS011;61691;53.072;6.582;2023-07-02T14:42:48;18.65;;;4.35;;
73456;SDS011;61691;53.072;6.582;2023-07-02T14:45:15;17.23;;;4.55;;
73456;SDS011;61691;53.072;6.582;2023-07-02T14:47:42;16.88;;;3.92;;
73456;SDS011;61691;53.072;6.582;2023-07-02T14:50:09;20.83;;;3.97;;
73456;SDS011;61691;53.072;6.582;2023-07-02T14:52:36;16.92;;;4.10;;
73456;SDS011;61691;53.072;6.582;2023-07-02T14:55:03;16.02;;;3.72;;
73456;SDS011;61691;53.072;6.582;2023-07-02T14:57:31;18.20;;;4.00;;
73456;SDS011;61691;53.072;6.582;2023-07-02T14:59:57;16.63;;;4.22;;
73456;SDS011;61691;53.072;6.582;2023-07-02T15:02:24;15.98;;;3.70;;
73456;SDS011;61691;53.072;6.582;2023-07-02T15:04:51;14.45;;;3.47;;
73456;SDS011;61691;53.072;6.582;2023-07-02T15:07:18;14.80;;;3.60;;
73456;SDS011;61691;53.072;6.582;2023-07-02T15:09:46;15.70;;;3.53;;
73456;SDS011;61691;53.072;6.582;2023-07-02T15:12:13;16.40;;;3.42;;
73456;SDS011;61691;53.072;6.582;2023-07-02T15:14:40;18.35;;;3.90;;
73456;SDS011;61691;53.072;6.582;2023-07-02T15:17:07;15.95;;;3.50;;
73456;SDS011;61691;53.072;6.582;2023-07-02T15:19:34;15.45;;;3.67;;
73456;SDS011;61691;53.072;6.582;2023-07-02T15:22:00;19.45;;;4.05;;
73456;SDS011;61691;53.072;6.582;2023-07-02T15:24:27;18.20;;;4.68;;
73456;SDS011;61691;53.072;6.582;2023-07-02T15:26:54;19.05;;;4.00;;
73456;SDS011;61691;53.072;6.582;2023-07-02T15:29:21;15.68;;;3.80;;
73456;SDS011;61691;53.072;6.582;2023-07-02T15:31:48;16.42;;;4.05;;
73456;SDS011;61691;53.072;6.582;2023-07-02T15:34:14;16.40;;;4.05;;
73456;SDS011;61691;53.072;6.582;2023-07-02T15:36:45;17.42;;;3.65;;
73456;SDS011;61691;53.072;6.582;2023-07-02T15:39:12;17.45;;;3.50;;
73456;SDS011;61691;53.072;6.582;2023-07-02T15:41:39;16.27;;;3.38;;
73456;SDS011;61691;53.072;6.582;2023-07-02T15:44:08;16.73;;;3.67;;
73456;SDS011;61691;53.072;6.582;2023-07-02T15:46:35;17.00;;;3.58;;
73456;SDS011;61691;53.072;6.582;2023-07-02T15:49:02;16.02;;;3.78;;
73456;SDS011;61691;53.072;6.582;2023-07-02T15:51:29;19.95;;;4.63;;
73456;SDS011;61691;53.072;6.582;2023-07-02T15:54:03;16.92;;;4.15;;
73456;SDS011;61691;53.072;6.582;2023-07-02T15:56:32;15.75;;;3.42;;
73456;SDS011;61691;53.072;6.582;2023-07-02T15:59:00;17.88;;;3.83;;
73456;SDS011;61691;53.072;6.582;2023-07-02T16:01:27;17.23;;;3.67;;
73456;SDS011;61691;53.072;6.582;2023-07-02T16:03:55;16.80;;;3.85;;
73456;SDS011;61691;53.072;6.582;2023-07-02T16:06:22;20.13;;;4.07;;
73456;SDS011;61691;53.072;6.582;2023-07-02T16:08:51;17.15;;;3.80;;
73456;SDS011;61691;53.072;6.582;2023-07-02T16:11:17;17.02;;;3.50;;
73456;SDS011;61691;53.072;6.582;2023-07-02T16:13:44;16.90;;;3.83;;
73456;SDS011;61691;53.072;6.582;2023-07-02T16:16:11;15.75;;;3.33;;
73456;SDS011;61691;53.072;6.582;2023-07-02T16:18:38;16.40;;;3.55;;
73456;SDS011;61691;53.072;6.582;2023-07-02T16:21:05;16.05;;;3.72;;
73456;SDS011;61691;53.072;6.582;2023-07-02T16:23:32;15.82;;;3.70;;
73456;SDS011;61691;53.072;6.582;2023-07-02T16:26:01;18.58;;;4.00;;
73456;SDS011;61691;53.072;6.582;2023-07-02T16:30:59;16.23;;;3.88;;
73456;SDS011;61691;53.072;6.582;2023-07-02T16:33:26;16.17;;;3.85;;
73456;SDS011;61691;53.072;6.582;2023-07-02T16:35:53;20.38;;;6.75;;
73456;SDS011;61691;53.072;6.582;2023-07-02T16:38:19;54.72;;;22.92;;
73456;SDS011;61691;53.072;6.582;2023-07-02T16:40:46;23.08;;;9.18;;
73456;SDS011;61691;53.072;6.582;2023-07-02T16:43:14;18.00;;;3.92;;
73456;SDS011;61691;53.072;6.582;2023-07-02T16:45:41;15.13;;;3.50;;
73456;SDS011;61691;53.072;6.582;2023-07-02T16:48:09;15.35;;;3.92;;
73456;SDS011;61691;53.072;6.582;2023-07-02T16:50:35;15.40;;;3.50;;
73456;SDS011;61691;53.072;6.582;2023-07-02T16:53:02;17.73;;;3.80;;
73456;SDS011;61691;53.072;6.582;2023-07-02T16:55:29;18.95;;;4.43;;
73456;SDS011;61691;53.072;6.582;2023-07-02T16:57:57;16.67;;;4.22;;
73456;SDS011;61691;53.072;6.582;2023-07-02T17:00:24;17.42;;;3.78;;
73456;SDS011;61691;53.072;6.582;2023-07-02T17:02:51;15.77;;;3.60;;
73456;SDS011;61691;53.072;6.582;2023-07-02T17:05:17;18.30;;;4.13;;
73456;SDS011;61691;53.072;6.582;2023-07-02T17:07:44;16.27;;;3.95;;
73456;SDS011;61691;53.072;6.582;2023-07-02T17:10:11;16.63;;;4.00;;
73456;SDS011;61691;53.072;6.582;2023-07-02T17:12:38;16.27;;;3.70;;
73456;SDS011;61691;53.072;6.582;2023-07-02T17:15:05;16.95;;;4.00;;
73456;SDS011;61691;53.072;6.582;2023-07-02T17:17:32;18.30;;;4.07;;
73456;SDS011;61691;53.072;6.582;2023-07-02T17:19:59;17.02;;;4.20;;
73456;SDS011;61691;53.072;6.582;2023-07-02T17:22:28;17.48;;;4.10;;
73456;SDS011;61691;53.072;6.582;2023-07-02T17:24:57;20.02;;;4.05;;
73456;SDS011;61691;53.072;6.582;2023-07-02T17:27:28;16.85;;;4.07;;
73456;SDS011;61691;53.072;6.582;2023-07-02T17:30:00;17.40;;;4.10;;
73456;SDS011;61691;53.072;6.582;2023-07-02T17:32:29;18.98;;;3.88;;
73456;SDS011;61691;53.072;6.582;2023-07-02T17:34:57;17.48;;;4.20;;
73456;SDS011;61691;53.072;6.582;2023-07-02T17:37:24;18.63;;;4.60;;
73456;SDS011;61691;53.072;6.582;2023-07-02T17:39:51;20.10;;;4.40;;
73456;SDS011;61691;53.072;6.582;2023-07-02T17:42:19;19.45;;;5.10;;
73456;SDS011;61691;53.072;6.582;2023-07-02T17:44:46;17.75;;;4.43;;
73456;SDS011;61691;53.072;6.582;2023-07-02T17:47:15;18.27;;;4.10;;
73456;SDS011;61691;53.072;6.582;2023-07-02T17:49:44;18.13;;;4.37;;
73456;SDS011;61691;53.072;6.582;2023-07-02T17:52:13;21.98;;;4.43;;
73456;SDS011;61691;53.072;6.582;2023-07-02T17:54:43;18.27;;;4.18;;
73456;SDS011;61691;53.072;6.582;2023-07-02T17:57:12;20.08;;;4.45;;
73456;SDS011;61691;53.072;6.582;2023-07-02T17:59:40;17.63;;;3.90;;
73456;SDS011;61691;53.072;6.582;2023-07-02T18:02:08;15.50;;;3.70;;
73456;SDS011;61691;53.072;6.582;2023-07-02T18:04:37;16.08;;;3.78;;
73456;SDS011;61691;53.072;6.582;2023-07-02T18:07:08;18.63;;;4.10;;
73456;SDS011;61691;53.072;6.582;2023-07-02T18:09:40;18.40;;;3.85;;
73456;SDS011;61691;53.072;6.582;2023-07-02T18:12:09;17.98;;;4.22;;
73456;SDS011;61691;53.072;6.582;2023-07-02T18:14:40;18.67;;;4.30;;
73456;SDS011;61691;53.072;6.582;2023-07-02T18:17:08;18.83;;;4.07;;
73456;SDS011;61691;53.072;6.582;2023-07-02T18:19:36;16.75;;;4.05;;
73456;SDS011;61691;53.072;6.582;2023-07-02T18:22:03;17.02;;;3.85;;
73456;SDS011;61691;53.072;6.582;2023-07-02T18:24:30;17.88;;;4.00;;
73456;SDS011;61691;53.072;6.582;2023-07-02T18:26:59;19.50;;;4.13;;
73456;SDS011;61691;53.072;6.582;2023-07-02T18:29:28;16.00;;;4.07;;
73456;SDS011;61691;53.072;6.582;2023-07-02T18:31:58;16.73;;;3.67;;
73456;SDS011;61691;53.072;6.582;2023-07-02T18:34:29;18.98;;;3.85;;
73456;SDS011;61691;53.072;6.582;2023-07-02T18:36:56;19.02;;;4.30;;
73456;SDS011;61691;53.072;6.582;2023-07-02T18:39:27;17.85;;;4.25;;
73456;SDS011;61691;53.072;6.582;2023-07-02T18:42:00;18.15;;;4.53;;
73456;SDS011;61691;53.072;6.582;2023-07-02T18:44:29;16.17;;;3.72;;
73456;SDS011;61691;53.072;6.582;2023-07-02T18:47:06;17.25;;;3.97;;
73456;SDS011;61691;53.072;6.582;2023-07-02T18:49:38;18.73;;;4.50;;
73456;SDS011;61691;53.072;6.582;2023-07-02T18:52:07;15.68;;;3.70;;
73456;SDS011;61691;53.072;6.582;2023-07-02T18:54:38;17.33;;;3.45;;
73456;SDS011;61691;53.072;6.582;2023-07-02T18:57:07;17.17;;;3.92;;
73456;SDS011;61691;53.072;6.582;2023-07-02T18:59:35;17.17;;;3.38;;
73456;SDS011;61691;53.072;6.582;2023-07-02T19:02:02;20.42;;;5.22;;
73456;SDS011;61691;53.072;6.582;2023-07-02T19:04:31;16.75;;;4.00;;
73456;SDS011;61691;53.072;6.582;2023-07-02T19:07:02;17.42;;;3.90;;
73456;SDS011;61691;53.072;6.582;2023-07-02T19:09:34;17.83;;;4.18;;
73456;SDS011;61691;53.072;6.582;2023-07-02T19:12:03;21.73;;;5.40;;
73456;SDS011;61691;53.072;6.582;2023-07-02T19:14:34;18.88;;;4.53;;
73456;SDS011;61691;53.072;6.582;2023-07-02T19:17:05;16.63;;;3.70;;
73456;SDS011;61691;53.072;6.582;2023-07-02T19:19:33;18.75;;;4.28;;
73456;SDS011;61691;53.072;6.582;2023-07-02T19:22:02;16.63;;;4.30;;
73456;SDS011;61691;53.072;6.582;2023-07-02T19:24:29;17.90;;;4.10;;
73456;SDS011;61691;53.072;6.582;2023-07-02T19:26:56;19.35;;;4.82;;
73456;SDS011;61691;53.072;6.582;2023-07-02T19:29:23;20.55;;;5.28;;
73456;SDS011;61691;53.072;6.582;2023-07-02T19:31:49;17.98;;;4.38;;